createdAt,value
2022-08-05T00:01:27.635Z,33.30
2022-08-05T00:03:57.013Z,26.38
2022-08-05T00:06:32.338Z,24.10
2022-08-05T00:09:00.430Z,29.17
2022-08-05T00:11:34.581Z,25.27
2022-08-05T00:14:12.821Z,31.38
2022-08-05T00:16:52.971Z,28.10
2022-08-05T00:19:21.464Z,23.73
2022-08-05T00:21:48.754Z,26.17
2022-08-05T00:24:19.004Z,32.20
2022-08-05T00:26:52.098Z,34.47
2022-08-05T00:29:25.366Z,25.17
2022-08-05T00:32:10.176Z,28.77
2022-08-05T00:34:56.732Z,29.08
2022-08-05T00:37:26.735Z,24.05
2022-08-05T00:40:02.551Z,23.98
2022-08-05T00:42:36.625Z,22.80
2022-08-05T00:45:04.461Z,32.90
2022-08-05T00:47:53.246Z,37.65
2022-08-05T00:50:17.286Z,38.30
2022-08-05T00:52:45.472Z,27.20
2022-08-05T00:55:13.209Z,30.50
2022-08-05T00:57:58.389Z,30.50
2022-08-05T01:00:29.610Z,32.78
2022-08-05T01:02:56.710Z,34.20
2022-08-05T01:05:23.678Z,28.00
2022-08-05T01:08:42.323Z,23.80
2022-08-05T01:10:51.498Z,21.65
2022-08-05T01:13:57.972Z,29.42
2022-08-05T01:16:26.655Z,19.13
2022-08-05T01:18:57.996Z,27.20
2022-08-05T01:21:39.639Z,19.23
2022-08-05T01:24:21.121Z,16.55
2022-08-05T01:26:48.580Z,21.80
2022-08-05T01:29:23.101Z,22.08
2022-08-05T01:31:54.345Z,27.73
2022-08-05T01:36:49.259Z,22.38
2022-08-05T01:39:45.712Z,26.42
2022-08-05T01:42:03.186Z,28.45
2022-08-05T01:44:34.434Z,26.33
2022-08-05T01:47:02.559Z,21.33
2022-08-05T01:50:00.462Z,23.88
2022-08-05T01:52:22.565Z,19.38
2022-08-05T01:54:52.028Z,23.45
2022-08-05T01:58:09.881Z,21.90
2022-08-05T02:00:12.403Z,19.33
2022-08-05T02:02:46.537Z,20.08
2022-08-05T02:07:47.353Z,17.85
2022-08-05T02:10:28.917Z,20.67
2022-08-05T02:13:15.824Z,20.90
2022-08-05T02:15:50.251Z,17.20
2022-08-05T02:18:49.106Z,20.00
2022-08-05T02:21:17.464Z,17.13
2022-08-05T02:23:46.258Z,19.25
2022-08-05T02:26:13.510Z,15.77
2022-08-05T02:28:45.890Z,18.27
2022-08-05T02:31:16.338Z,11.68
2022-08-05T02:33:48.439Z,20.27
2022-08-05T02:36:16.432Z,16.23
2022-08-05T02:38:53.694Z,13.30
2022-08-05T02:41:21.103Z,22.05
2022-08-05T02:44:02.816Z,19.63
2022-08-05T02:46:33.074Z,17.50
2022-08-05T02:49:01.215Z,19.10
2022-08-05T02:51:28.590Z,22.35
2022-08-05T02:54:34.984Z,17.00
2022-08-05T02:57:01.963Z,14.00
2022-08-05T02:59:29.694Z,20.42
2022-08-05T03:02:15.899Z,21.30
2022-08-05T03:04:42.703Z,18.13
2022-08-05T03:07:09.294Z,17.20
2022-08-05T03:09:57.326Z,21.20
2022-08-05T03:12:30.974Z,13.32
2022-08-05T03:14:57.625Z,14.73
2022-08-05T03:17:25.577Z,15.23
2022-08-05T03:19:53.675Z,12.07
2022-08-05T03:22:32.532Z,14.90
2022-08-05T03:25:11.736Z,14.48
2022-08-05T03:27:59.188Z,9.88
2022-08-05T03:30:33.386Z,14.38
2022-08-05T03:33:01.820Z,13.80
2022-08-05T03:35:28.792Z,13.93
2022-08-05T03:37:58.581Z,10.95
2022-08-05T03:40:32.210Z,13.95
2022-08-05T03:42:59.312Z,9.85
2022-08-05T03:45:28.971Z,13.10
2022-08-05T03:47:57.234Z,12.15
2022-08-05T03:50:26.949Z,9.95
2022-08-05T03:55:00.424Z,14.55
2022-08-05T03:56:11.648Z,14.80
2022-08-05T03:58:41.167Z,9.73
2022-08-05T04:01:11.076Z,10.73
2022-08-05T04:03:38.874Z,9.20
2022-08-05T04:06:08.696Z,11.00
2022-08-05T04:08:36.747Z,7.43
2022-08-05T04:11:04.061Z,8.18
2022-08-05T04:13:50.673Z,16.25
2022-08-05T04:16:24.931Z,13.35
2022-08-05T04:18:54.515Z,9.57
2022-08-05T04:22:05.227Z,8.23
2022-08-05T04:24:09.151Z,7.95
2022-08-05T04:26:45.500Z,4.63
2022-08-05T04:29:13.035Z,12.32
2022-08-05T04:31:40.703Z,8.38
2022-08-05T04:34:31.423Z,6.30
2022-08-05T04:36:53.976Z,11.70
2022-08-05T04:39:21.105Z,7.90
2022-08-05T04:41:48.504Z,10.02
2022-08-05T04:44:21.273Z,4.88
2022-08-05T04:46:55.582Z,12.07
2022-08-05T04:49:24.561Z,12.52
2022-08-05T04:51:51.285Z,8.07
2022-08-05T04:54:27.357Z,10.10
2022-08-05T04:56:58.926Z,6.75
2022-08-05T04:59:38.310Z,9.27
2022-08-05T05:02:36.594Z,5.32
2022-08-05T05:05:01.878Z,8.32
2022-08-05T05:07:32.345Z,4.75
2022-08-05T05:09:59.581Z,9.67
2022-08-05T05:12:29.172Z,4.97
2022-08-05T05:14:55.576Z,4.25
2022-08-05T05:17:24.702Z,7.90
2022-08-05T05:20:08.832Z,5.95
2022-08-05T05:22:35.342Z,9.68
2022-08-05T05:25:16.737Z,12.10
2022-08-05T05:27:48.748Z,9.93
2022-08-05T05:30:29.203Z,6.90
2022-08-05T05:32:57.187Z,10.48
2022-08-05T05:35:27.615Z,7.88
2022-08-05T05:37:59.364Z,7.72
2022-08-05T05:40:27.419Z,5.20
2022-08-05T05:42:54.543Z,12.35
2022-08-05T05:45:22.805Z,7.63
2022-08-05T05:48:06.991Z,8.52
2022-08-05T05:50:44.008Z,7.25
2022-08-05T05:53:21.254Z,5.55
2022-08-05T05:55:51.872Z,4.63
2022-08-05T05:58:31.395Z,6.90
2022-08-05T06:03:53.818Z,6.95
2022-08-05T06:06:15.430Z,7.55
2022-08-05T06:08:41.893Z,7.28
2022-08-05T06:11:15.535Z,6.95
2022-08-05T06:13:53.718Z,8.95
2022-08-05T06:16:30.596Z,4.95
2022-08-05T06:19:00.906Z,7.47
2022-08-05T06:21:36.602Z,4.30
2022-08-05T06:24:05.833Z,8.52
2022-08-05T06:26:33.988Z,6.30
2022-08-05T06:29:03.722Z,8.50
2022-08-05T06:31:48.053Z,5.07
2022-08-05T06:34:19.836Z,3.90
2022-08-05T06:36:56.737Z,7.82
2022-08-05T06:39:27.197Z,8.52
2022-08-05T06:41:55.308Z,7.47
2022-08-05T06:44:22.257Z,9.63
2022-08-05T06:46:50.869Z,6.97
2022-08-05T06:49:17.725Z,6.95
2022-08-05T06:51:45.628Z,5.93
2022-08-05T06:54:19.093Z,6.63
2022-08-05T06:56:54.784Z,7.93
2022-08-05T06:59:38.906Z,4.53
2022-08-05T07:02:08.713Z,9.90
2022-08-05T07:04:35.093Z,9.20
2022-08-05T07:07:03.015Z,6.00
2022-08-05T07:09:40.402Z,9.68
2022-08-05T07:12:07.429Z,6.95
2022-08-05T07:14:54.007Z,5.47
2022-08-05T07:18:00.930Z,7.22
2022-08-05T07:22:54.150Z,10.00
2022-08-05T07:25:55.464Z,4.55
2022-08-05T07:28:11.686Z,7.18
2022-08-05T07:30:39.770Z,8.38
2022-08-05T07:33:09.328Z,6.93
2022-08-05T07:36:04.594Z,10.27
2022-08-05T07:38:32.814Z,3.60
2022-08-05T07:42:07.480Z,11.73
2022-08-05T07:43:49.878Z,9.50
2022-08-05T07:46:24.285Z,7.47
2022-08-05T07:49:02.124Z,8.13
2022-08-05T07:51:37.281Z,6.10
2022-08-05T07:54:08.465Z,3.70
2022-08-05T07:57:00.182Z,5.28
2022-08-05T07:59:31.028Z,8.68
2022-08-05T08:02:10.622Z,9.18
2022-08-05T08:04:42.691Z,10.55
2022-08-05T08:07:11.301Z,10.07
2022-08-05T08:09:38.402Z,7.88
2022-08-05T08:12:12.519Z,8.10
2022-08-05T08:14:47.013Z,9.15
2022-08-05T08:17:16.154Z,8.70
2022-08-05T08:20:22.308Z,6.07
2022-08-05T08:22:34.842Z,6.32
2022-08-05T08:25:03.333Z,5.38
2022-08-05T08:27:40.107Z,8.23
2022-08-05T08:30:28.537Z,9.05
2022-08-05T08:33:02.647Z,10.57
2022-08-05T08:35:34.991Z,5.15
2022-08-05T08:38:07.632Z,7.47
2022-08-05T08:40:35.330Z,6.57
2022-08-05T08:45:21.001Z,6.25
2022-08-05T08:45:49.935Z,8.45
2022-08-05T08:48:43.060Z,10.30
2022-08-05T08:51:30.638Z,5.85
2022-08-05T08:53:52.256Z,3.17
2022-08-05T08:56:22.097Z,12.13
2022-08-05T08:58:48.956Z,8.35
2022-08-05T09:01:20.246Z,6.03
2022-08-05T09:03:48.217Z,8.07
2022-08-05T09:06:21.444Z,6.78
2022-08-05T09:08:53.536Z,5.72
2022-08-05T09:11:52.204Z,4.45
2022-08-05T09:14:54.505Z,6.60
2022-08-05T09:16:53.115Z,4.95
2022-08-05T09:19:20.794Z,5.90
2022-08-05T09:22:17.675Z,6.57
2022-08-05T09:24:40.685Z,6.80
2022-08-05T09:27:10.193Z,5.95
2022-08-05T09:29:49.781Z,6.80
2022-08-05T09:32:41.970Z,5.78
2022-08-05T09:35:26.612Z,4.65
2022-08-05T09:38:12.958Z,5.10
2022-08-05T09:40:52.625Z,6.43
2022-08-05T09:43:28.074Z,6.67
2022-08-05T09:46:27.388Z,3.97
2022-08-05T09:48:55.476Z,2.55
2022-08-05T09:51:36.505Z,5.60
2022-08-05T09:54:06.818Z,4.70
2022-08-05T09:56:34.091Z,3.20
2022-08-05T09:59:07.686Z,6.15
2022-08-05T10:01:36.798Z,8.80
2022-08-05T10:04:13.735Z,3.50
2022-08-05T10:07:19.998Z,10.18
2022-08-05T10:10:02.685Z,4.88
2022-08-05T10:12:50.061Z,3.65
2022-08-05T10:15:21.663Z,3.33
2022-08-05T10:18:03.519Z,6.15
2022-08-05T10:20:31.429Z,10.93
2022-08-05T10:23:00.402Z,2.60
2022-08-05T10:25:26.940Z,4.32
2022-08-05T10:28:13.214Z,5.72
2022-08-05T10:32:03.049Z,5.13
2022-08-05T10:33:28.859Z,5.13
2022-08-05T10:35:59.163Z,3.58
2022-08-05T10:38:27.926Z,5.22
2022-08-05T10:41:05.132Z,2.63
2022-08-05T10:43:41.266Z,3.67
2022-08-05T10:46:09.142Z,3.55
2022-08-05T10:48:39.533Z,2.78
2022-08-05T10:51:28.790Z,5.22
2022-08-05T10:53:55.868Z,2.85
2022-08-05T10:56:26.398Z,4.10
2022-08-05T10:58:52.822Z,4.47
2022-08-05T11:01:55.418Z,2.25
2022-08-05T11:04:30.701Z,2.30
2022-08-05T11:07:00.663Z,1.75
2022-08-05T11:09:32.272Z,3.53
2022-08-05T11:12:24.631Z,3.05
2022-08-05T11:15:19.419Z,3.60
2022-08-05T11:18:00.520Z,3.25
2022-08-05T11:20:34.111Z,2.13
2022-08-05T11:23:09.073Z,1.88
2022-08-05T11:26:06.279Z,2.35
2022-08-05T11:28:25.091Z,1.98
2022-08-05T11:30:58.495Z,4.30
2022-08-05T11:33:26.165Z,2.20
2022-08-05T11:36:11.048Z,3.90
2022-08-05T11:38:45.341Z,4.25
2022-08-05T11:41:58.139Z,2.10
2022-08-05T11:44:08.269Z,4.82
2022-08-05T11:46:36.449Z,1.73
2022-08-05T11:49:04.913Z,2.03
2022-08-05T11:51:49.149Z,2.88
2022-08-05T11:54:33.296Z,1.85
2022-08-05T11:57:08.700Z,2.63
2022-08-05T11:59:50.808Z,1.38
2022-08-05T12:02:30.257Z,3.67
2022-08-05T12:05:00.185Z,2.38
2022-08-05T12:08:08.520Z,2.85
2022-08-05T12:10:17.773Z,3.92
2022-08-05T12:15:20.434Z,2.92
2022-08-05T12:18:11.142Z,3.13
2022-08-05T12:20:39.118Z,2.92
2022-08-05T12:23:10.653Z,3.67
2022-08-05T12:25:53.460Z,3.03
2022-08-05T12:28:36.768Z,5.10
2022-08-05T12:31:04.305Z,2.72
2022-08-05T12:33:36.339Z,2.45
2022-08-05T12:36:03.940Z,3.10
2022-08-05T12:38:40.121Z,3.58
2022-08-05T12:41:13.250Z,2.28
2022-08-05T12:43:59.206Z,2.15
2022-08-05T12:46:31.421Z,3.92
2022-08-05T12:49:13.839Z,1.88
2022-08-05T12:52:13.585Z,3.42
2022-08-05T12:54:35.420Z,1.83
2022-08-05T12:57:04.244Z,1.75
2022-08-05T13:01:57.739Z,1.00
2022-08-05T13:02:41.446Z,2.30
2022-08-05T13:05:08.350Z,1.25
2022-08-05T13:08:00.278Z,2.15
2022-08-05T13:10:28.698Z,1.25
2022-08-05T13:12:58.139Z,1.65
2022-08-05T13:15:41.829Z,1.15
2022-08-05T13:18:20.737Z,0.90
2022-08-05T13:20:49.356Z,1.00
2022-08-05T13:23:18.200Z,2.97
2022-08-05T13:25:52.486Z,1.25
2022-08-05T13:28:25.540Z,2.17
2022-08-05T13:30:53.413Z,4.15
2022-08-05T13:34:21.550Z,1.20
2022-08-05T13:36:07.025Z,1.60
2022-08-05T13:38:36.027Z,2.35
2022-08-05T13:41:04.840Z,3.47
2022-08-05T13:43:45.304Z,1.40
2022-08-05T13:46:43.815Z,3.55
2022-08-05T13:49:10.272Z,1.27
2022-08-05T13:51:40.931Z,0.98
2022-08-05T13:54:11.861Z,1.75
2022-08-05T13:56:39.452Z,0.73
2022-08-05T13:59:20.125Z,0.57
2022-08-05T14:01:56.308Z,2.22
2022-08-05T14:04:43.527Z,1.75
2022-08-05T14:07:25.874Z,2.50
2022-08-05T14:10:03.604Z,3.00
2022-08-05T14:12:32.739Z,1.00
2022-08-05T14:15:06.126Z,1.00
2022-08-05T14:17:51.096Z,2.10
2022-08-05T14:20:27.399Z,1.50
2022-08-05T14:22:54.341Z,1.52
2022-08-05T14:25:22.499Z,0.85
2022-08-05T14:27:54.270Z,1.88
2022-08-05T14:30:21.405Z,2.25
2022-08-05T14:32:48.819Z,1.35
2022-08-05T14:35:16.162Z,2.83
2022-08-05T14:37:49.090Z,0.57
2022-08-05T14:40:20.866Z,1.45
2022-08-05T14:42:50.983Z,1.50
2022-08-05T14:45:18.315Z,1.38
2022-08-05T14:48:03.183Z,1.45
2022-08-05T14:50:31.650Z,2.35
2022-08-05T14:52:59.603Z,1.08
2022-08-05T14:55:38.769Z,0.98
2022-08-05T14:58:11.811Z,1.23
2022-08-05T15:00:39.328Z,1.00
2022-08-05T15:03:25.987Z,3.25
2022-08-05T15:06:08.315Z,2.38
2022-08-05T15:08:59.753Z,2.40
2022-08-05T15:11:52.365Z,2.17
2022-08-05T15:14:11.645Z,2.17
2022-08-05T15:16:58.027Z,1.20
2022-08-05T15:19:24.428Z,2.63
2022-08-05T15:21:51.250Z,3.63
2022-08-05T15:24:18.290Z,2.33
2022-08-05T15:26:46.409Z,2.92
2022-08-05T15:29:15.023Z,3.10
2022-08-05T15:31:41.688Z,3.67
2022-08-05T15:34:31.747Z,3.78
2022-08-05T15:36:54.612Z,3.08
2022-08-05T15:40:59.098Z,2.90
2022-08-05T15:42:50.035Z,2.17
2022-08-05T15:44:54.955Z,3.40
2022-08-05T15:47:22.485Z,2.03
2022-08-05T15:49:58.771Z,2.38
2022-08-05T15:52:52.306Z,3.33
2022-08-05T15:55:16.003Z,3.10
2022-08-05T15:57:45.070Z,5.55
2022-08-05T16:00:11.826Z,4.20
2022-08-05T16:02:38.741Z,4.28
2022-08-05T16:05:05.441Z,3.58
2022-08-05T16:07:36.116Z,3.35
2022-08-05T16:10:02.689Z,3.78
2022-08-05T16:12:32.210Z,2.78
2022-08-05T16:14:58.595Z,3.40
2022-08-05T16:17:25.568Z,4.13
2022-08-05T16:20:04.903Z,4.75
2022-08-05T16:22:38.377Z,3.60
2022-08-05T16:25:09.327Z,5.00
2022-08-05T16:28:00.016Z,6.68
2022-08-05T16:30:26.241Z,5.95
2022-08-05T16:32:54.976Z,2.90
2022-08-05T16:35:24.841Z,3.65
2022-08-05T16:38:16.315Z,7.72
2022-08-05T16:40:41.158Z,3.13
2022-08-05T16:43:07.586Z,4.05
2022-08-05T16:46:04.130Z,3.00
2022-08-05T16:48:25.411Z,4.43
2022-08-05T16:50:53.171Z,4.38
2022-08-05T16:53:22.469Z,1.55
2022-08-05T16:55:49.233Z,5.32
2022-08-05T16:58:15.609Z,4.90
2022-08-05T17:00:46.938Z,3.90
2022-08-05T17:03:20.109Z,3.60
2022-08-05T17:05:51.803Z,3.03
2022-08-05T17:08:36.516Z,4.72
2022-08-05T17:11:16.458Z,3.15
2022-08-05T17:13:43.693Z,3.42
2022-08-05T17:16:27.914Z,4.97
2022-08-05T17:18:56.426Z,4.13
2022-08-05T17:21:23.628Z,5.28
2022-08-05T17:24:04.711Z,6.25
2022-08-05T17:26:35.361Z,3.33
2022-08-05T17:29:07.325Z,3.58
2022-08-05T17:31:41.460Z,3.35
2022-08-05T17:34:20.574Z,6.28
2022-08-05T17:36:56.675Z,4.50
2022-08-05T17:39:24.077Z,4.47
2022-08-05T17:42:20.088Z,4.63
2022-08-05T17:44:37.525Z,4.18
2022-08-05T17:47:07.022Z,1.50
2022-08-05T17:50:00.289Z,4.00
2022-08-05T17:52:20.312Z,2.28
2022-08-05T17:54:48.441Z,4.32
2022-08-05T17:57:15.266Z,4.22
2022-08-05T17:59:41.706Z,3.97
2022-08-05T18:02:10.921Z,4.63
2022-08-05T18:04:51.013Z,6.35
2022-08-05T18:07:19.948Z,5.57
2022-08-05T18:10:00.031Z,3.20
2022-08-05T18:12:28.693Z,4.70
2022-08-05T18:14:55.403Z,2.20
2022-08-05T18:17:58.683Z,2.95
2022-08-05T18:20:14.044Z,9.63
2022-08-05T18:22:53.782Z,2.95
2022-08-05T18:25:21.292Z,4.10
2022-08-05T18:27:52.469Z,6.03
2022-08-05T18:30:19.360Z,6.25
2022-08-05T18:32:53.312Z,1.88
2022-08-05T18:35:28.338Z,2.60
2022-08-05T18:38:12.896Z,4.38
2022-08-05T18:41:54.250Z,6.20
2022-08-05T18:43:31.625Z,4.35
2022-08-05T18:46:06.933Z,7.82
2022-08-05T18:48:41.857Z,7.20
2022-08-05T18:52:05.982Z,5.95
2022-08-05T18:54:13.592Z,4.82
2022-08-05T18:56:40.368Z,3.97
2022-08-05T18:59:42.632Z,6.85
2022-08-05T19:01:58.057Z,5.28
2022-08-05T19:04:29.435Z,5.53
2022-08-05T19:06:55.910Z,5.45
2022-08-05T19:09:22.278Z,7.00
2022-08-05T19:11:59.412Z,4.05
2022-08-05T19:14:52.419Z,6.45
2022-08-05T19:17:14.400Z,6.28
2022-08-05T19:19:46.450Z,4.85
2022-08-05T19:22:17.060Z,10.07
2022-08-05T19:24:54.147Z,7.60
2022-08-05T19:27:22.743Z,5.20
2022-08-05T19:29:49.979Z,14.07
2022-08-05T19:32:16.403Z,5.90
2022-08-05T19:34:55.175Z,4.07
2022-08-05T19:37:30.084Z,6.68
2022-08-05T19:40:15.024Z,11.13
2022-08-05T19:42:41.753Z,6.00
2022-08-05T19:45:27.492Z,9.48
2022-08-05T19:47:59.492Z,9.43
2022-08-05T19:50:25.877Z,6.97
2022-08-05T19:52:52.263Z,7.28
2022-08-05T19:56:14.276Z,8.18
2022-08-05T19:58:28.889Z,8.93
2022-08-05T20:00:51.542Z,7.38
2022-08-05T20:03:19.034Z,5.75
2022-08-05T20:05:51.373Z,8.30
2022-08-05T20:08:18.325Z,8.18
2022-08-05T20:10:44.754Z,8.07
2022-08-05T20:13:16.542Z,7.97
2022-08-05T20:15:52.406Z,6.82
2022-08-05T20:18:36.133Z,7.10
2022-08-05T20:21:04.464Z,9.50
2022-08-05T20:23:40.657Z,16.83
2022-08-05T20:26:18.436Z,9.48
2022-08-05T20:28:50.353Z,10.82
2022-08-05T20:31:17.620Z,9.60
2022-08-05T20:33:48.522Z,6.90
2022-08-05T20:36:17.863Z,10.90
2022-08-05T20:38:54.546Z,6.97
2022-08-05T20:41:27.201Z,8.40
2022-08-05T20:44:18.385Z,10.80
2022-08-05T20:46:55.269Z,7.03
2022-08-05T20:49:24.350Z,10.23
2022-08-05T20:51:53.422Z,4.93
2022-08-05T20:54:20.391Z,8.32
2022-08-05T20:56:47.320Z,10.88
2022-08-05T20:59:18.977Z,9.10
2022-08-05T21:01:46.344Z,10.80
2022-08-05T21:04:13.655Z,9.82
2022-08-05T21:06:45.325Z,8.25
2022-08-05T21:09:12.663Z,10.13
2022-08-05T21:12:07.169Z,12.93
2022-08-05T21:14:27.204Z,9.88
2022-08-05T21:16:53.661Z,13.32
2022-08-05T21:19:20.177Z,10.10
2022-08-05T21:21:50.529Z,13.18
2022-08-05T21:24:19.683Z,13.75
2022-08-05T21:26:53.462Z,11.05
2022-08-05T21:29:26.534Z,13.65
2022-08-05T21:31:58.348Z,14.93
2022-08-05T21:34:24.776Z,15.35
2022-08-05T21:36:51.238Z,11.38
2022-08-05T21:39:26.718Z,20.83
2022-08-05T21:42:01.223Z,13.98
2022-08-05T21:44:29.106Z,15.48
2022-08-05T21:46:58.232Z,18.23
2022-08-05T21:49:48.519Z,10.90
2022-08-05T21:52:16.504Z,12.32
2022-08-05T21:54:51.131Z,12.45
2022-08-05T21:57:31.581Z,13.10
2022-08-05T22:00:05.514Z,10.80
2022-08-05T22:02:33.015Z,11.20
2022-08-05T22:05:00.033Z,19.13
2022-08-05T22:07:40.159Z,13.48
2022-08-05T22:10:15.207Z,17.88
2022-08-05T22:12:45.003Z,15.05
2022-08-05T22:16:00.814Z,16.08
2022-08-05T22:18:04.051Z,12.27
2022-08-05T22:20:30.438Z,22.40
2022-08-05T22:23:21.605Z,15.93
2022-08-05T22:26:09.739Z,11.60
2022-08-05T22:28:37.911Z,16.33
2022-08-05T22:31:05.894Z,14.73
2022-08-05T22:33:55.348Z,13.95
2022-08-05T22:36:24.458Z,12.82
2022-08-05T22:38:51.587Z,18.88
2022-08-05T22:42:05.389Z,15.90
2022-08-05T22:44:07.741Z,16.83
2022-08-05T22:46:34.257Z,17.40
2022-08-05T22:49:07.237Z,14.05
2022-08-05T22:52:07.126Z,16.17
2022-08-05T22:54:25.732Z,18.67
2022-08-05T22:56:54.563Z,17.05
2022-08-05T22:59:43.734Z,13.65
2022-08-05T23:02:08.601Z,19.60
2022-08-05T23:04:37.263Z,12.60
2022-08-05T23:07:04.271Z,10.48
2022-08-05T23:09:58.152Z,16.10
2022-08-05T23:12:23.820Z,15.25
2022-08-05T23:14:50.869Z,13.55
2022-08-05T23:17:24.610Z,11.25
2022-08-05T23:20:02.476Z,14.38
2022-08-05T23:22:29.717Z,8.80
2022-08-05T23:24:57.490Z,15.52
2022-08-05T23:27:24.322Z,9.27
2022-08-05T23:29:57.941Z,13.07
2022-08-05T23:32:24.755Z,13.27
2022-08-05T23:34:53.513Z,9.60
2022-08-05T23:37:19.956Z,8.13
2022-08-05T23:39:54.262Z,13.23
2022-08-05T23:42:23.446Z,11.35
2022-08-05T23:44:55.560Z,10.68
2022-08-05T23:47:21.971Z,10.02
2022-08-05T23:49:52.135Z,8.52
2022-08-05T23:55:00.181Z,9.27
2022-08-05T23:57:28.214Z,12.20
